sensor_id;sensor_type;location;lat;lon;timestamp;P1;durP1;ratioP1;P2;durP2;ratioP2
18806;SDS011;9531;52.030;4.380;2022-08-19T00:00:40;1.67;;;1.45;;
18806;SDS011;9531;52.030;4.380;2022-08-19T00:03:07;1.35;;;1.10;;
18806;SDS011;9531;52.030;4.380;2022-08-19T00:05:34;3.95;;;1.63;;
18806;SDS011;9531;52.030;4.380;2022-08-19T00:08:02;1.38;;;1.27;;
18806;SDS011;9531;52.030;4.380;2022-08-19T00:10:29;1.58;;;1.48;;
18806;SDS011;9531;52.030;4.380;2022-08-19T00:12:56;3.88;;;1.77;;
18806;SDS011;9531;52.030;4.380;2022-08-19T00:15:24;1.48;;;1.25;;
18806;SDS011;9531;52.030;4.380;2022-08-19T00:17:52;1.70;;;1.50;;
18806;SDS011;9531;52.030;4.380;2022-08-19T00:20:20;1.85;;;1.45;;
18806;SDS011;9531;52.030;4.380;2022-08-19T00:22:48;2.08;;;1.42;;
18806;SDS011;9531;52.030;4.380;2022-08-19T00:25:16;1.40;;;1.25;;
18806;SDS011;9531;52.030;4.380;2022-08-19T00:27:43;1.52;;;1.38;;
18806;SDS011;9531;52.030;4.380;2022-08-19T00:30:10;1.27;;;1.15;;
18806;SDS011;9531;52.030;4.380;2022-08-19T00:32:39;1.38;;;1.27;;
18806;SDS011;9531;52.030;4.380;2022-08-19T00:35:07;1.42;;;1.33;;
18806;SDS011;9531;52.030;4.380;2022-08-19T00:37:35;1.42;;;1.13;;
18806;SDS011;9531;52.030;4.380;2022-08-19T00:40:04;1.25;;;1.15;;
18806;SDS011;9531;52.030;4.380;2022-08-19T00:42:32;1.25;;;1.10;;
18806;SDS011;9531;52.030;4.380;2022-08-19T00:44:59;1.45;;;1.27;;
18806;SDS011;9531;52.030;4.380;2022-08-19T00:47:26;1.33;;;0.98;;
18806;SDS011;9531;52.030;4.380;2022-08-19T00:49:55;1.90;;;1.40;;
18806;SDS011;9531;52.030;4.380;2022-08-19T00:52:25;1.23;;;1.13;;
18806;SDS011;9531;52.030;4.380;2022-08-19T00:54:55;1.88;;;1.42;;
18806;SDS011;9531;52.030;4.380;2022-08-19T00:57:24;1.65;;;1.55;;
18806;SDS011;9531;52.030;4.380;2022-08-19T00:59:55;1.25;;;1.15;;
18806;SDS011;9531;52.030;4.380;2022-08-19T01:02:24;1.35;;;1.25;;
18806;SDS011;9531;52.030;4.380;2022-08-19T01:04:51;1.20;;;1.10;;
18806;SDS011;9531;52.030;4.380;2022-08-19T01:07:20;1.33;;;1.23;;
18806;SDS011;9531;52.030;4.380;2022-08-19T01:09:47;1.70;;;1.60;;
18806;SDS011;9531;52.030;4.380;2022-08-19T01:12:15;1.20;;;1.10;;
18806;SDS011;9531;52.030;4.380;2022-08-19T01:14:43;1.67;;;1.45;;
18806;SDS011;9531;52.030;4.380;2022-08-19T01:17:11;1.90;;;1.75;;
18806;SDS011;9531;52.030;4.380;2022-08-19T01:19:40;2.88;;;1.67;;
18806;SDS011;9531;52.030;4.380;2022-08-19T01:22:11;1.40;;;1.30;;
18806;SDS011;9531;52.030;4.380;2022-08-19T01:24:43;1.67;;;1.52;;
18806;SDS011;9531;52.030;4.380;2022-08-19T01:27:11;1.65;;;1.55;;
18806;SDS011;9531;52.030;4.380;2022-08-19T01:29:38;2.17;;;1.73;;
18806;SDS011;9531;52.030;4.380;2022-08-19T01:32:07;1.25;;;1.15;;
18806;SDS011;9531;52.030;4.380;2022-08-19T01:34:34;1.60;;;1.50;;
18806;SDS011;9531;52.030;4.380;2022-08-19T01:37:05;2.17;;;1.35;;
18806;SDS011;9531;52.030;4.380;2022-08-19T01:39:33;1.65;;;1.45;;
18806;SDS011;9531;52.030;4.380;2022-08-19T01:42:02;2.05;;;1.25;;
18806;SDS011;9531;52.030;4.380;2022-08-19T01:44:31;3.25;;;1.90;;
18806;SDS011;9531;52.030;4.380;2022-08-19T01:46:58;2.25;;;1.67;;
18806;SDS011;9531;52.030;4.380;2022-08-19T01:49:27;1.55;;;1.40;;
18806;SDS011;9531;52.030;4.380;2022-08-19T01:51:55;1.67;;;1.50;;
18806;SDS011;9531;52.030;4.380;2022-08-19T01:54:25;1.60;;;1.50;;
18806;SDS011;9531;52.030;4.380;2022-08-19T01:56:57;1.48;;;1.20;;
18806;SDS011;9531;52.030;4.380;2022-08-19T01:59:28;4.05;;;1.80;;
18806;SDS011;9531;52.030;4.380;2022-08-19T02:01:58;1.50;;;1.33;;
18806;SDS011;9531;52.030;4.380;2022-08-19T02:04:26;1.85;;;1.75;;
18806;SDS011;9531;52.030;4.380;2022-08-19T02:06:53;2.47;;;1.90;;
18806;SDS011;9531;52.030;4.380;2022-08-19T02:09:20;1.75;;;1.65;;
18806;SDS011;9531;52.030;4.380;2022-08-19T02:11:46;4.90;;;2.10;;
18806;SDS011;9531;52.030;4.380;2022-08-19T02:14:14;2.75;;;2.30;;
18806;SDS011;9531;52.030;4.380;2022-08-19T02:16:43;3.95;;;2.63;;
18806;SDS011;9531;52.030;4.380;2022-08-19T02:19:10;2.83;;;2.05;;
18806;SDS011;9531;52.030;4.380;2022-08-19T02:21:37;3.13;;;2.60;;
18806;SDS011;9531;52.030;4.380;2022-08-19T02:24:04;3.20;;;2.70;;
18806;SDS011;9531;52.030;4.380;2022-08-19T02:26:32;3.85;;;3.15;;
18806;SDS011;9531;52.030;4.380;2022-08-19T02:29:05;4.82;;;3.58;;
18806;SDS011;9531;52.030;4.380;2022-08-19T02:31:32;4.20;;;3.80;;
18806;SDS011;9531;52.030;4.380;2022-08-19T02:34:02;3.55;;;3.25;;
18806;SDS011;9531;52.030;4.380;2022-08-19T02:36:29;4.20;;;3.58;;
18806;SDS011;9531;52.030;4.380;2022-08-19T02:38:58;3.50;;;3.20;;
18806;SDS011;9531;52.030;4.380;2022-08-19T02:41:27;4.90;;;4.40;;
18806;SDS011;9531;52.030;4.380;2022-08-19T02:43:56;4.18;;;3.78;;
18806;SDS011;9531;52.030;4.380;2022-08-19T02:46:25;5.35;;;4.47;;
18806;SDS011;9531;52.030;4.380;2022-08-19T02:48:55;4.03;;;3.53;;
18806;SDS011;9531;52.030;4.380;2022-08-19T02:51:34;6.90;;;5.18;;
18806;SDS011;9531;52.030;4.380;2022-08-19T02:54:03;6.95;;;5.10;;
18806;SDS011;9531;52.030;4.380;2022-08-19T02:56:33;4.65;;;3.88;;
18806;SDS011;9531;52.030;4.380;2022-08-19T02:59:00;6.88;;;5.05;;
18806;SDS011;9531;52.030;4.380;2022-08-19T03:01:31;4.72;;;3.90;;
18806;SDS011;9531;52.030;4.380;2022-08-19T03:04:02;5.10;;;4.53;;
18806;SDS011;9531;52.030;4.380;2022-08-19T03:06:30;5.45;;;4.20;;
18806;SDS011;9531;52.030;4.380;2022-08-19T03:09:01;4.38;;;3.80;;
18806;SDS011;9531;52.030;4.380;2022-08-19T03:11:29;5.75;;;4.65;;
18806;SDS011;9531;52.030;4.380;2022-08-19T03:13:58;5.65;;;5.05;;
18806;SDS011;9531;52.030;4.380;2022-08-19T03:16:26;10.90;;;5.18;;
18806;SDS011;9531;52.030;4.380;2022-08-19T03:18:56;4.05;;;3.75;;
18806;SDS011;9531;52.030;4.380;2022-08-19T03:21:25;5.20;;;4.50;;
18806;SDS011;9531;52.030;4.380;2022-08-19T03:23:55;4.65;;;4.18;;
18806;SDS011;9531;52.030;4.380;2022-08-19T03:26:24;5.18;;;4.68;;
18806;SDS011;9531;52.030;4.380;2022-08-19T03:28:52;7.15;;;5.57;;
18806;SDS011;9531;52.030;4.380;2022-08-19T03:31:19;5.15;;;4.65;;
18806;SDS011;9531;52.030;4.380;2022-08-19T03:33:47;5.90;;;5.30;;
18806;SDS011;9531;52.030;4.380;2022-08-19T03:36:17;7.13;;;6.32;;
18806;SDS011;9531;52.030;4.380;2022-08-19T03:38:48;10.43;;;8.25;;
18806;SDS011;9531;52.030;4.380;2022-08-19T03:41:22;7.53;;;6.40;;
18806;SDS011;9531;52.030;4.380;2022-08-19T03:43:51;6.95;;;6.22;;
18806;SDS011;9531;52.030;4.380;2022-08-19T03:46:20;7.22;;;6.05;;
18806;SDS011;9531;52.030;4.380;2022-08-19T03:48:49;9.45;;;7.78;;
18806;SDS011;9531;52.030;4.380;2022-08-19T03:51:19;8.93;;;7.70;;
18806;SDS011;9531;52.030;4.380;2022-08-19T03:53:50;8.13;;;7.30;;
18806;SDS011;9531;52.030;4.380;2022-08-19T03:56:18;10.85;;;9.00;;
18806;SDS011;9531;52.030;4.380;2022-08-19T03:58:47;8.82;;;7.85;;
18806;SDS011;9531;52.030;4.380;2022-08-19T04:01:15;7.55;;;6.72;;
18806;SDS011;9531;52.030;4.380;2022-08-19T04:03:44;10.10;;;7.93;;
18806;SDS011;9531;52.030;4.380;2022-08-19T04:06:15;11.82;;;8.32;;
18806;SDS011;9531;52.030;4.380;2022-08-19T04:08:44;10.82;;;9.00;;
18806;SDS011;9531;52.030;4.380;2022-08-19T04:11:14;11.75;;;9.63;;
18806;SDS011;9531;52.030;4.380;2022-08-19T04:13:43;11.38;;;9.40;;
18806;SDS011;9531;52.030;4.380;2022-08-19T04:16:11;13.85;;;10.88;;
18806;SDS011;9531;52.030;4.380;2022-08-19T04:18:38;11.18;;;10.05;;
18806;SDS011;9531;52.030;4.380;2022-08-19T04:21:06;14.25;;;10.85;;
18806;SDS011;9531;52.030;4.380;2022-08-19T04:23:34;12.90;;;10.40;;
18806;SDS011;9531;52.030;4.380;2022-08-19T04:26:02;12.38;;;9.32;;
18806;SDS011;9531;52.030;4.380;2022-08-19T04:28:29;15.20;;;9.85;;
18806;SDS011;9531;52.030;4.380;2022-08-19T04:30:57;12.55;;;10.13;;
18806;SDS011;9531;52.030;4.380;2022-08-19T04:33:24;9.90;;;8.90;;
18806;SDS011;9531;52.030;4.380;2022-08-19T04:35:53;13.15;;;9.43;;
18806;SDS011;9531;52.030;4.380;2022-08-19T04:38:23;16.13;;;11.27;;
18806;SDS011;9531;52.030;4.380;2022-08-19T04:40:50;15.32;;;11.57;;
18806;SDS011;9531;52.030;4.380;2022-08-19T04:43:36;11.32;;;10.02;;
18806;SDS011;9531;52.030;4.380;2022-08-19T04:46:06;13.02;;;10.00;;
18806;SDS011;9531;52.030;4.380;2022-08-19T04:48:35;13.77;;;10.23;;
18806;SDS011;9531;52.030;4.380;2022-08-19T04:51:06;20.52;;;12.68;;
18806;SDS011;9531;52.030;4.380;2022-08-19T04:53:37;17.27;;;9.40;;
18806;SDS011;9531;52.030;4.380;2022-08-19T04:56:05;13.27;;;9.10;;
18806;SDS011;9531;52.030;4.380;2022-08-19T04:58:34;13.65;;;10.00;;
18806;SDS011;9531;52.030;4.380;2022-08-19T05:01:01;25.20;;;9.30;;
18806;SDS011;9531;52.030;4.380;2022-08-19T05:03:30;16.65;;;9.18;;
18806;SDS011;9531;52.030;4.380;2022-08-19T05:05:59;29.75;;;8.70;;
18806;SDS011;9531;52.030;4.380;2022-08-19T05:08:32;11.43;;;9.55;;
18806;SDS011;9531;52.030;4.380;2022-08-19T05:11:09;36.25;;;11.07;;
18806;SDS011;9531;52.030;4.380;2022-08-19T05:13:38;13.57;;;9.00;;
18806;SDS011;9531;52.030;4.380;2022-08-19T05:16:06;9.80;;;8.60;;
18806;SDS011;9531;52.030;4.380;2022-08-19T05:18:35;12.70;;;9.25;;
18806;SDS011;9531;52.030;4.380;2022-08-19T05:21:20;15.35;;;9.70;;
18806;SDS011;9531;52.030;4.380;2022-08-19T05:24:04;12.00;;;8.65;;
18806;SDS011;9531;52.030;4.380;2022-08-19T05:26:34;9.02;;;8.13;;
18806;SDS011;9531;52.030;4.380;2022-08-19T05:29:01;8.55;;;7.55;;
18806;SDS011;9531;52.030;4.380;2022-08-19T05:31:29;12.40;;;10.25;;
18806;SDS011;9531;52.030;4.380;2022-08-19T05:33:58;11.50;;;8.77;;
18806;SDS011;9531;52.030;4.380;2022-08-19T05:36:25;10.63;;;8.25;;
18806;SDS011;9531;52.030;4.380;2022-08-19T05:38:54;9.38;;;8.18;;
18806;SDS011;9531;52.030;4.380;2022-08-19T05:41:21;9.05;;;7.68;;
18806;SDS011;9531;52.030;4.380;2022-08-19T05:43:55;8.15;;;6.97;;
18806;SDS011;9531;52.030;4.380;2022-08-19T05:46:23;9.73;;;7.70;;
18806;SDS011;9531;52.030;4.380;2022-08-19T05:48:50;10.40;;;7.80;;
18806;SDS011;9531;52.030;4.380;2022-08-19T05:51:20;6.53;;;5.88;;
18806;SDS011;9531;52.030;4.380;2022-08-19T05:53:47;11.02;;;7.18;;
18806;SDS011;9531;52.030;4.380;2022-08-19T05:56:15;12.90;;;7.55;;
18806;SDS011;9531;52.030;4.380;2022-08-19T05:58:44;12.80;;;8.30;;
18806;SDS011;9531;52.030;4.380;2022-08-19T06:01:12;7.75;;;6.07;;
18806;SDS011;9531;52.030;4.380;2022-08-19T06:03:41;10.57;;;7.03;;
18806;SDS011;9531;52.030;4.380;2022-08-19T06:06:09;8.30;;;6.57;;
18806;SDS011;9531;52.030;4.380;2022-08-19T06:08:39;12.90;;;8.45;;
18806;SDS011;9531;52.030;4.380;2022-08-19T06:11:11;12.55;;;6.45;;
18806;SDS011;9531;52.030;4.380;2022-08-19T06:13:40;12.13;;;7.95;;
18806;SDS011;9531;52.030;4.380;2022-08-19T06:16:08;12.45;;;8.95;;
18806;SDS011;9531;52.030;4.380;2022-08-19T06:18:35;13.20;;;8.15;;
18806;SDS011;9531;52.030;4.380;2022-08-19T06:21:02;12.48;;;8.80;;
18806;SDS011;9531;52.030;4.380;2022-08-19T06:23:29;14.63;;;8.55;;
18806;SDS011;9531;52.030;4.380;2022-08-19T06:25:57;13.48;;;8.65;;
18806;SDS011;9531;52.030;4.380;2022-08-19T06:28:24;14.13;;;9.30;;
18806;SDS011;9531;52.030;4.380;2022-08-19T06:30:51;16.98;;;8.73;;
18806;SDS011;9531;52.030;4.380;2022-08-19T06:33:18;11.82;;;8.35;;
18806;SDS011;9531;52.030;4.380;2022-08-19T06:35:46;28.85;;;8.02;;
18806;SDS011;9531;52.030;4.380;2022-08-19T06:38:13;9.77;;;7.78;;
18806;SDS011;9531;52.030;4.380;2022-08-19T06:40:40;11.70;;;8.80;;
18806;SDS011;9531;52.030;4.380;2022-08-19T06:43:08;23.70;;;6.57;;
18806;SDS011;9531;52.030;4.380;2022-08-19T06:45:36;7.32;;;5.20;;
18806;SDS011;9531;52.030;4.380;2022-08-19T06:48:03;15.63;;;6.32;;
18806;SDS011;9531;52.030;4.380;2022-08-19T06:50:30;8.32;;;5.90;;
18806;SDS011;9531;52.030;4.380;2022-08-19T06:52:57;9.38;;;6.40;;
18806;SDS011;9531;52.030;4.380;2022-08-19T06:55:24;10.70;;;6.20;;
18806;SDS011;9531;52.030;4.380;2022-08-19T06:57:52;6.35;;;5.25;;
18806;SDS011;9531;52.030;4.380;2022-08-19T07:00:20;4.85;;;4.35;;
18806;SDS011;9531;52.030;4.380;2022-08-19T07:02:47;5.65;;;5.07;;
18806;SDS011;9531;52.030;4.380;2022-08-19T07:05:15;9.98;;;5.57;;
18806;SDS011;9531;52.030;4.380;2022-08-19T07:07:43;9.10;;;6.55;;
18806;SDS011;9531;52.030;4.380;2022-08-19T07:10:10;8.73;;;5.78;;
18806;SDS011;9531;52.030;4.380;2022-08-19T07:12:37;5.50;;;4.53;;
18806;SDS011;9531;52.030;4.380;2022-08-19T07:15:06;7.47;;;5.38;;
18806;SDS011;9531;52.030;4.380;2022-08-19T07:17:39;5.55;;;4.80;;
18806;SDS011;9531;52.030;4.380;2022-08-19T07:20:08;7.15;;;4.72;;
18806;SDS011;9531;52.030;4.380;2022-08-19T07:22:37;7.22;;;4.53;;
18806;SDS011;9531;52.030;4.380;2022-08-19T07:25:05;5.25;;;4.35;;
18806;SDS011;9531;52.030;4.380;2022-08-19T07:27:34;6.70;;;4.10;;
18806;SDS011;9531;52.030;4.380;2022-08-19T07:30:03;5.03;;;4.10;;
18806;SDS011;9531;52.030;4.380;2022-08-19T07:32:31;5.85;;;4.90;;
18806;SDS011;9531;52.030;4.380;2022-08-19T07:35:00;6.63;;;4.80;;
18806;SDS011;9531;52.030;4.380;2022-08-19T07:37:28;4.80;;;4.28;;
18806;SDS011;9531;52.030;4.380;2022-08-19T07:39:55;3.97;;;3.58;;
18806;SDS011;9531;52.030;4.380;2022-08-19T07:42:22;4.68;;;3.60;;
18806;SDS011;9531;52.030;4.380;2022-08-19T07:44:49;4.95;;;3.25;;
18806;SDS011;9531;52.030;4.380;2022-08-19T07:47:17;5.00;;;4.28;;
18806;SDS011;9531;52.030;4.380;2022-08-19T07:49:44;3.90;;;3.55;;
18806;SDS011;9531;52.030;4.380;2022-08-19T07:52:13;5.85;;;3.55;;
18806;SDS011;9531;52.030;4.380;2022-08-19T07:54:41;4.22;;;3.83;;
18806;SDS011;9531;52.030;4.380;2022-08-19T07:57:08;6.60;;;3.35;;
18806;SDS011;9531;52.030;4.380;2022-08-19T07:59:36;4.40;;;3.58;;
18806;SDS011;9531;52.030;4.380;2022-08-19T08:02:03;5.43;;;3.92;;
18806;SDS011;9531;52.030;4.380;2022-08-19T08:04:33;12.20;;;3.10;;
18806;SDS011;9531;52.030;4.380;2022-08-19T08:07:19;5.22;;;3.38;;
18806;SDS011;9531;52.030;4.380;2022-08-19T08:10:04;4.82;;;3.72;;
18806;SDS011;9531;52.030;4.380;2022-08-19T08:12:34;3.00;;;2.60;;
18806;SDS011;9531;52.030;4.380;2022-08-19T08:15:05;4.65;;;2.92;;
18806;SDS011;9531;52.030;4.380;2022-08-19T08:17:35;4.82;;;2.90;;
18806;SDS011;9531;52.030;4.380;2022-08-19T08:20:03;3.13;;;2.22;;
18806;SDS011;9531;52.030;4.380;2022-08-19T08:22:33;3.92;;;2.45;;
18806;SDS011;9531;52.030;4.380;2022-08-19T08:25:18;3.13;;;2.20;;
18806;SDS011;9531;52.030;4.380;2022-08-19T08:27:48;2.00;;;1.73;;
18806;SDS011;9531;52.030;4.380;2022-08-19T08:30:17;2.55;;;1.98;;
18806;SDS011;9531;52.030;4.380;2022-08-19T08:32:47;4.13;;;1.73;;
18806;SDS011;9531;52.030;4.380;2022-08-19T08:35:16;2.22;;;2.03;;
18806;SDS011;9531;52.030;4.380;2022-08-19T08:37:49;2.13;;;1.80;;
18806;SDS011;9531;52.030;4.380;2022-08-19T08:40:20;3.15;;;1.67;;
18806;SDS011;9531;52.030;4.380;2022-08-19T08:42:50;5.55;;;2.70;;
18806;SDS011;9531;52.030;4.380;2022-08-19T08:45:27;2.80;;;1.95;;
18806;SDS011;9531;52.030;4.380;2022-08-19T08:47:56;2.53;;;1.70;;
18806;SDS011;9531;52.030;4.380;2022-08-19T08:50:28;2.45;;;1.40;;
18806;SDS011;9531;52.030;4.380;2022-08-19T08:53:04;4.03;;;2.13;;
18806;SDS011;9531;52.030;4.380;2022-08-19T08:55:35;3.38;;;2.47;;
18806;SDS011;9531;52.030;4.380;2022-08-19T08:58:04;2.67;;;1.77;;
18806;SDS011;9531;52.030;4.380;2022-08-19T09:00:47;3.55;;;1.77;;
18806;SDS011;9531;52.030;4.380;2022-08-19T09:03:16;4.35;;;1.95;;
18806;SDS011;9531;52.030;4.380;2022-08-19T09:05:48;5.55;;;2.10;;
18806;SDS011;9531;52.030;4.380;2022-08-19T09:08:27;2.05;;;1.80;;
18806;SDS011;9531;52.030;4.380;2022-08-19T09:11:09;15.60;;;2.03;;
18806;SDS011;9531;52.030;4.380;2022-08-19T09:13:44;2.67;;;1.40;;
18806;SDS011;9531;52.030;4.380;2022-08-19T09:16:18;3.08;;;1.70;;
18806;SDS011;9531;52.030;4.380;2022-08-19T09:18:51;1.23;;;1.15;;
18806;SDS011;9531;52.030;4.380;2022-08-19T09:21:22;2.03;;;1.10;;
18806;SDS011;9531;52.030;4.380;2022-08-19T09:23:53;2.35;;;1.50;;
18806;SDS011;9531;52.030;4.380;2022-08-19T09:26:22;1.55;;;1.30;;
18806;SDS011;9531;52.030;4.380;2022-08-19T09:28:51;1.50;;;1.23;;
18806;SDS011;9531;52.030;4.380;2022-08-19T09:31:20;3.53;;;1.60;;
18806;SDS011;9531;52.030;4.380;2022-08-19T09:33:49;1.35;;;1.15;;
18806;SDS011;9531;52.030;4.380;2022-08-19T09:36:19;1.52;;;1.30;;
18806;SDS011;9531;52.030;4.380;2022-08-19T09:38:48;2.95;;;1.20;;
18806;SDS011;9531;52.030;4.380;2022-08-19T09:41:18;3.08;;;1.33;;
18806;SDS011;9531;52.030;4.380;2022-08-19T09:43:47;2.05;;;1.00;;
18806;SDS011;9531;52.030;4.380;2022-08-19T09:46:17;1.25;;;1.02;;
18806;SDS011;9531;52.030;4.380;2022-08-19T09:48:46;3.42;;;1.58;;
18806;SDS011;9531;52.030;4.380;2022-08-19T15:26:09;0.73;;;0.63;;
18806;SDS011;9531;52.030;4.380;2022-08-19T15:28:36;0.50;;;0.40;;
18806;SDS011;9531;52.030;4.380;2022-08-19T15:31:03;0.43;;;0.40;;
18806;SDS011;9531;52.030;4.380;2022-08-19T15:33:31;0.50;;;0.50;;
18806;SDS011;9531;52.030;4.380;2022-08-19T15:53:38;0.30;;;0.30;;
18806;SDS011;9531;52.030;4.380;2022-08-19T15:56:05;0.63;;;0.47;;
18806;SDS011;9531;52.030;4.380;2022-08-19T15:58:33;8.13;;;0.40;;
18806;SDS011;9531;52.030;4.380;2022-08-19T16:01:18;0.30;;;0.30;;
18806;SDS011;9531;52.030;4.380;2022-08-19T16:04:04;0.40;;;0.40;;
18806;SDS011;9531;52.030;4.380;2022-08-19T16:06:49;0.55;;;0.43;;
18806;SDS011;9531;52.030;4.380;2022-08-19T16:09:19;0.93;;;0.50;;
18806;SDS011;9531;52.030;4.380;2022-08-19T16:11:48;0.30;;;0.30;;
18806;SDS011;9531;52.030;4.380;2022-08-19T16:14:16;0.43;;;0.40;;
18806;SDS011;9531;52.030;4.380;2022-08-19T16:16:44;1.90;;;0.77;;
18806;SDS011;9531;52.030;4.380;2022-08-19T16:19:12;0.38;;;0.32;;
18806;SDS011;9531;52.030;4.380;2022-08-19T16:21:41;0.90;;;0.45;;
18806;SDS011;9531;52.030;4.380;2022-08-19T16:24:10;0.88;;;0.40;;
18806;SDS011;9531;52.030;4.380;2022-08-19T16:26:40;0.30;;;0.30;;
18806;SDS011;9531;52.030;4.380;2022-08-19T16:29:09;0.40;;;0.40;;
18806;SDS011;9531;52.030;4.380;2022-08-19T16:31:38;0.55;;;0.50;;
18806;SDS011;9531;52.030;4.380;2022-08-19T16:34:06;0.40;;;0.40;;
18806;SDS011;9531;52.030;4.380;2022-08-19T16:36:33;0.63;;;0.50;;
18806;SDS011;9531;52.030;4.380;2022-08-19T16:39:00;0.43;;;0.43;;
18806;SDS011;9531;52.030;4.380;2022-08-19T16:41:27;0.75;;;0.50;;
18806;SDS011;9531;52.030;4.380;2022-08-19T16:43:57;0.70;;;0.50;;
18806;SDS011;9531;52.030;4.380;2022-08-19T16:46:24;0.60;;;0.50;;
18806;SDS011;9531;52.030;4.380;2022-08-19T16:48:51;0.60;;;0.60;;
18806;SDS011;9531;52.030;4.380;2022-08-19T16:51:18;0.60;;;0.50;;
18806;SDS011;9531;52.030;4.380;2022-08-19T16:53:46;0.57;;;0.47;;
18806;SDS011;9531;52.030;4.380;2022-08-19T16:56:13;0.50;;;0.43;;
18806;SDS011;9531;52.030;4.380;2022-08-19T16:58:41;0.50;;;0.43;;
18806;SDS011;9531;52.030;4.380;2022-08-19T17:01:10;0.50;;;0.45;;
18806;SDS011;9531;52.030;4.380;2022-08-19T17:03:41;0.60;;;0.60;;
18806;SDS011;9531;52.030;4.380;2022-08-19T17:06:10;0.98;;;0.68;;
18806;SDS011;9531;52.030;4.380;2022-08-19T17:08:41;0.90;;;0.60;;
18806;SDS011;9531;52.030;4.380;2022-08-19T17:11:10;0.60;;;0.52;;
18806;SDS011;9531;52.030;4.380;2022-08-19T17:13:37;1.10;;;0.75;;
18806;SDS011;9531;52.030;4.380;2022-08-19T17:16:04;1.63;;;0.82;;
18806;SDS011;9531;52.030;4.380;2022-08-19T17:18:35;0.65;;;0.65;;
18806;SDS011;9531;52.030;4.380;2022-08-19T17:21:04;2.95;;;0.60;;
18806;SDS011;9531;52.030;4.380;2022-08-19T17:23:31;0.63;;;0.63;;
18806;SDS011;9531;52.030;4.380;2022-08-19T17:26:05;1.08;;;0.80;;
18806;SDS011;9531;52.030;4.380;2022-08-19T17:28:32;1.38;;;0.90;;
18806;SDS011;9531;52.030;4.380;2022-08-19T17:30:59;1.67;;;0.80;;
18806;SDS011;9531;52.030;4.380;2022-08-19T17:33:26;3.83;;;0.80;;
18806;SDS011;9531;52.030;4.380;2022-08-19T17:35:54;1.80;;;0.88;;
18806;SDS011;9531;52.030;4.380;2022-08-19T17:38:21;1.30;;;0.63;;
18806;SDS011;9531;52.030;4.380;2022-08-19T17:40:49;2.83;;;0.70;;
18806;SDS011;9531;52.030;4.380;2022-08-19T17:43:16;0.57;;;0.55;;
18806;SDS011;9531;52.030;4.380;2022-08-19T17:45:44;1.02;;;0.80;;
18806;SDS011;9531;52.030;4.380;2022-08-19T17:48:11;0.75;;;0.75;;
18806;SDS011;9531;52.030;4.380;2022-08-19T17:50:38;1.40;;;1.00;;
18806;SDS011;9531;52.030;4.380;2022-08-19T17:53:07;1.20;;;0.82;;
18806;SDS011;9531;52.030;4.380;2022-08-19T17:55:34;1.30;;;0.88;;
18806;SDS011;9531;52.030;4.380;2022-08-19T17:58:01;1.10;;;0.90;;
18806;SDS011;9531;52.030;4.380;2022-08-19T18:00:29;1.60;;;1.20;;
18806;SDS011;9531;52.030;4.380;2022-08-19T18:02:58;1.83;;;1.02;;
18806;SDS011;9531;52.030;4.380;2022-08-19T18:05:29;1.73;;;0.98;;
18806;SDS011;9531;52.030;4.380;2022-08-19T18:07:58;1.00;;;0.88;;
18806;SDS011;9531;52.030;4.380;2022-08-19T18:10:29;2.05;;;0.90;;
18806;SDS011;9531;52.030;4.380;2022-08-19T18:12:57;0.85;;;0.70;;
18806;SDS011;9531;52.030;4.380;2022-08-19T18:15:25;5.95;;;0.85;;
18806;SDS011;9531;52.030;4.380;2022-08-19T18:17:53;0.80;;;0.63;;
18806;SDS011;9531;52.030;4.380;2022-08-19T18:20:20;0.88;;;0.63;;
18806;SDS011;9531;52.030;4.380;2022-08-19T18:22:48;1.00;;;0.90;;
18806;SDS011;9531;52.030;4.380;2022-08-19T18:25:17;0.73;;;0.73;;
18806;SDS011;9531;52.030;4.380;2022-08-19T18:27:50;1.05;;;0.75;;
18806;SDS011;9531;52.030;4.380;2022-08-19T18:30:19;2.35;;;1.13;;
18806;SDS011;9531;52.030;4.380;2022-08-19T18:32:47;1.88;;;0.80;;
18806;SDS011;9531;52.030;4.380;2022-08-19T18:35:17;1.52;;;1.08;;
18806;SDS011;9531;52.030;4.380;2022-08-19T18:37:47;3.28;;;1.20;;
18806;SDS011;9531;52.030;4.380;2022-08-19T18:40:15;1.15;;;0.77;;
18806;SDS011;9531;52.030;4.380;2022-08-19T18:43:04;0.95;;;0.80;;
18806;SDS011;9531;52.030;4.380;2022-08-19T18:45:49;2.67;;;0.57;;
18806;SDS011;9531;52.030;4.380;2022-08-19T18:48:48;1.30;;;0.77;;
18806;SDS011;9531;52.030;4.380;2022-08-19T18:51:31;0.88;;;0.60;;
18806;SDS011;9531;52.030;4.380;2022-08-19T18:53:59;1.38;;;0.80;;
18806;SDS011;9531;52.030;4.380;2022-08-19T18:56:27;0.90;;;0.70;;
18806;SDS011;9531;52.030;4.380;2022-08-19T19:04:02;1.27;;;0.70;;
18806;SDS011;9531;52.030;4.380;2022-08-19T19:06:32;0.50;;;0.50;;
18806;SDS011;9531;52.030;4.380;2022-08-19T19:09:03;1.02;;;0.75;;
18806;SDS011;9531;52.030;4.380;2022-08-19T19:11:31;2.10;;;0.70;;
18806;SDS011;9531;52.030;4.380;2022-08-19T19:14:03;3.35;;;0.75;;
18806;SDS011;9531;52.030;4.380;2022-08-19T19:16:34;0.60;;;0.57;;
18806;SDS011;9531;52.030;4.380;2022-08-19T19:19:02;0.95;;;0.85;;
18806;SDS011;9531;52.030;4.380;2022-08-19T19:21:30;0.77;;;0.63;;
18806;SDS011;9531;52.030;4.380;2022-08-19T19:23:58;0.82;;;0.70;;
18806;SDS011;9531;52.030;4.380;2022-08-19T19:26:26;1.30;;;0.77;;
18806;SDS011;9531;52.030;4.380;2022-08-19T19:28:53;1.15;;;0.70;;
18806;SDS011;9531;52.030;4.380;2022-08-19T19:31:23;1.38;;;0.85;;
18806;SDS011;9531;52.030;4.380;2022-08-19T19:33:52;4.93;;;1.00;;
18806;SDS011;9531;52.030;4.380;2022-08-19T19:36:19;1.10;;;0.85;;
18806;SDS011;9531;52.030;4.380;2022-08-19T19:38:46;1.13;;;0.70;;
18806;SDS011;9531;52.030;4.380;2022-08-19T19:41:14;1.90;;;0.85;;
18806;SDS011;9531;52.030;4.380;2022-08-19T19:43:43;1.50;;;0.75;;
18806;SDS011;9531;52.030;4.380;2022-08-19T19:46:11;2.22;;;0.95;;
18806;SDS011;9531;52.030;4.380;2022-08-19T19:48:42;1.30;;;0.65;;
18806;SDS011;9531;52.030;4.380;2022-08-19T19:51:10;1.10;;;0.82;;
18806;SDS011;9531;52.030;4.380;2022-08-19T19:53:39;1.52;;;0.70;;
18806;SDS011;9531;52.030;4.380;2022-08-19T19:56:06;2.15;;;0.63;;
18806;SDS011;9531;52.030;4.380;2022-08-19T19:58:46;0.90;;;0.70;;
18806;SDS011;9531;52.030;4.380;2022-08-19T20:01:14;1.75;;;0.93;;
18806;SDS011;9531;52.030;4.380;2022-08-19T20:03:44;1.60;;;0.90;;
18806;SDS011;9531;52.030;4.380;2022-08-19T20:06:12;1.15;;;0.77;;
18806;SDS011;9531;52.030;4.380;2022-08-19T20:08:41;1.17;;;0.82;;
18806;SDS011;9531;52.030;4.380;2022-08-19T20:11:27;2.60;;;1.02;;
18806;SDS011;9531;52.030;4.380;2022-08-19T20:13:58;1.25;;;0.60;;
18806;SDS011;9531;52.030;4.380;2022-08-19T20:16:27;1.98;;;1.10;;
18806;SDS011;9531;52.030;4.380;2022-08-19T20:18:57;0.98;;;0.93;;
18806;SDS011;9531;52.030;4.380;2022-08-19T20:21:26;1.55;;;1.00;;
18806;SDS011;9531;52.030;4.380;2022-08-19T20:23:57;1.27;;;0.90;;
18806;SDS011;9531;52.030;4.380;2022-08-19T20:26:25;0.98;;;0.80;;
18806;SDS011;9531;52.030;4.380;2022-08-19T20:28:53;0.98;;;0.80;;
18806;SDS011;9531;52.030;4.380;2022-08-19T20:31:21;1.05;;;0.85;;
18806;SDS011;9531;52.030;4.380;2022-08-19T20:33:48;0.70;;;0.70;;
18806;SDS011;9531;52.030;4.380;2022-08-19T20:36:16;0.60;;;0.60;;
18806;SDS011;9531;52.030;4.380;2022-08-19T20:38:43;0.82;;;0.80;;
18806;SDS011;9531;52.030;4.380;2022-08-19T20:41:10;0.75;;;0.70;;
18806;SDS011;9531;52.030;4.380;2022-08-19T20:43:39;1.08;;;0.80;;
18806;SDS011;9531;52.030;4.380;2022-08-19T20:46:06;1.25;;;0.95;;
18806;SDS011;9531;52.030;4.380;2022-08-19T20:48:34;1.00;;;0.70;;
18806;SDS011;9531;52.030;4.380;2022-08-19T20:51:03;1.25;;;0.85;;
18806;SDS011;9531;52.030;4.380;2022-08-19T20:53:35;3.13;;;1.23;;
18806;SDS011;9531;52.030;4.380;2022-08-19T20:56:03;0.80;;;0.70;;
18806;SDS011;9531;52.030;4.380;2022-08-19T20:58:32;2.03;;;1.25;;
18806;SDS011;9531;52.030;4.380;2022-08-19T21:01:00;1.13;;;0.93;;
18806;SDS011;9531;52.030;4.380;2022-08-19T21:03:28;1.33;;;0.77;;
18806;SDS011;9531;52.030;4.380;2022-08-19T21:05:57;1.00;;;0.63;;
18806;SDS011;9531;52.030;4.380;2022-08-19T21:08:24;0.63;;;0.60;;